Time;durP1;ratioP1;P1;durP2;ratioP2;P2;SDS_P1;SDS_P2;PMS_P1;PMS_P2;Temp;Humidity;BMP_temperature;BMP_pressure;BME280_temperature;BME280_humidity;BME280_pressure;Samples;Min_cycle;Max_cycle;Signal;HPM_P1;HPM_P2
2024/01/26 00:01:31;;;;;;;29.83;18.65;;;;;;;;;;5093372;28;20502;-80
2024/01/26 00:03:57;;;;;;;31.50;19.00;;;;;;;;;;5094816;28;20872;-81
2024/01/26 00:06:24;;;;;;;29.00;17.90;;;;;;;;;;5094751;28;20370;-81
2024/01/26 00:08:50;;;;;;;29.90;18.65;;;;;;;;;;5094398;28;20390;-81
2024/01/26 00:11:16;;;;;;;30.23;18.13;;;;;;;;;;5094013;28;20431;-81
2024/01/26 00:13:42;;;;;;;29.55;18.38;;;;;;;;;;5093787;28;20960;-80
2024/01/26 00:16:08;;;;;;;26.40;17.13;;;;;;;;;;5093859;28;20385;-80
2024/01/26 00:18:35;;;;;;;23.63;16.45;;;;;;;;;;5093998;28;20374;-80
2024/01/26 00:21:01;;;;;;;14.85;10.68;;;;;;;;;;5093582;28;20867;-81
2024/01/26 00:23:27;;;;;;;12.68;10.10;;;;;;;;;;5093943;28;20372;-80
2024/01/26 00:25:53;;;;;;;12.57;10.60;;;;;;;;;;5094338;28;20479;-81
2024/01/26 00:28:19;;;;;;;15.88;10.77;;;;;;;;;;5094017;28;20417;-80
2024/01/26 00:30:47;;;;;;;15.48;11.02;;;;;;;;;;5093478;28;20684;-80
2024/01/26 00:33:13;;;;;;;16.42;10.68;;;;;;;;;;5093863;28;20853;-80
2024/01/26 00:35:39;;;;;;;13.65;10.00;;;;;;;;;;5094082;28;20378;-80
2024/01/26 00:38:05;;;;;;;14.82;10.50;;;;;;;;;;5094180;28;20435;-80
2024/01/26 00:40:31;;;;;;;13.73;10.30;;;;;;;;;;5094341;28;20408;-80
2024/01/26 00:42:57;;;;;;;11.82;9.52;;;;;;;;;;5093505;28;20366;-81
2024/01/26 00:45:23;;;;;;;11.50;8.95;;;;;;;;;;5093677;28;20378;-80
2024/01/26 00:47:49;;;;;;;10.50;8.43;;;;;;;;;;5093606;28;20912;-81
2024/01/26 00:50:15;;;;;;;8.10;7.10;;;;;;;;;;5093227;28;20374;-81
2024/01/26 00:52:41;;;;;;;8.13;6.88;;;;;;;;;;5092765;28;20875;-81
2024/01/26 00:55:08;;;;;;;7.45;6.75;;;;;;;;;;5093572;28;20515;-81
2024/01/26 00:57:34;;;;;;;7.57;6.88;;;;;;;;;;5094221;28;20374;-81
2024/01/26 01:00:00;;;;;;;6.63;5.93;;;;;;;;;;5093770;28;20799;-81
2024/01/26 01:02:26;;;;;;;7.25;6.30;;;;;;;;;;5075464;28;20418;-81
2024/01/26 01:04:52;;;;;;;6.22;5.63;;;;;;;;;;5093917;28;20901;-81
2024/01/26 01:07:18;;;;;;;6.53;5.93;;;;;;;;;;5092653;28;20371;-81
2024/01/26 01:09:44;;;;;;;6.53;5.93;;;;;;;;;;5094277;28;21138;-80
2024/01/26 01:12:10;;;;;;;6.18;5.57;;;;;;;;;;5094338;28;20468;-81
2024/01/26 01:14:36;;;;;;;7.13;6.30;;;;;;;;;;5094382;28;20418;-81
2024/01/26 01:17:04;;;;;;;7.90;7.10;;;;;;;;;;5097621;28;20378;-81
2024/01/26 01:19:30;;;;;;;8.40;7.35;;;;;;;;;;5097570;28;20430;-81
2024/01/26 01:21:56;;;;;;;7.85;7.05;;;;;;;;;;5097663;28;20476;-81
2024/01/26 01:24:23;;;;;;;8.20;6.50;;;;;;;;;;5097757;28;20378;-81
2024/01/26 01:26:49;;;;;;;6.97;6.30;;;;;;;;;;5097425;28;20370;-81
2024/01/26 01:29:15;;;;;;;7.07;6.43;;;;;;;;;;5096938;28;20396;-81
2024/01/26 01:31:41;;;;;;;6.82;6.22;;;;;;;;;;5078884;28;20449;-81
2024/01/26 01:34:07;;;;;;;7.20;6.57;;;;;;;;;;5097184;28;20378;-80
2024/01/26 01:36:33;;;;;;;7.50;6.80;;;;;;;;;;5096677;28;20523;-81
2024/01/26 01:38:59;;;;;;;7.43;6.72;;;;;;;;;;5097633;28;20748;-80
2024/01/26 01:41:25;;;;;;;7.22;5.97;;;;;;;;;;5097065;28;20940;-81
2024/01/26 01:43:54;;;;;;;8.37;7.20;;;;;;;;;;5096905;28;20459;-81
2024/01/26 01:46:20;;;;;;;6.85;5.78;;;;;;;;;;5097121;28;20707;-80
2024/01/26 01:48:46;;;;;;;6.20;5.60;;;;;;;;;;5096835;28;20405;-81
2024/01/26 01:51:13;;;;;;;5.10;4.68;;;;;;;;;;5096952;28;20387;-81
2024/01/26 01:53:40;;;;;;;4.20;3.80;;;;;;;;;;5097490;28;20980;-81
2024/01/26 01:56:08;;;;;;;5.20;4.70;;;;;;;;;;5096846;28;20477;-81
2024/01/26 01:58:35;;;;;;;5.78;4.93;;;;;;;;;;5096929;28;20486;-81
2024/01/26 02:01:01;;;;;;;6.32;5.10;;;;;;;;;;5096445;28;20433;-81
2024/01/26 02:03:29;;;;;;;4.78;4.38;;;;;;;;;;5096531;28;20380;-81
2024/01/26 02:05:55;;;;;;;4.70;4.13;;;;;;;;;;5095844;28;20848;-81
2024/01/26 02:08:21;;;;;;;4.15;3.75;;;;;;;;;;5095608;28;20401;-80
2024/01/26 02:10:47;;;;;;;4.05;3.70;;;;;;;;;;5096123;28;20456;-80
2024/01/26 02:13:13;;;;;;;3.77;3.47;;;;;;;;;;5096220;28;20465;-80
2024/01/26 02:15:39;;;;;;;3.92;3.20;;;;;;;;;;5096181;28;20457;-81
2024/01/26 02:18:05;;;;;;;3.72;3.42;;;;;;;;;;5096458;28;20894;-81
2024/01/26 02:20:31;;;;;;;3.42;2.92;;;;;;;;;;5096473;28;20379;-81
2024/01/26 02:22:57;;;;;;;3.00;2.45;;;;;;;;;;5095154;28;20819;-81
2024/01/26 02:25:23;;;;;;;3.28;2.90;;;;;;;;;;5096552;28;20525;-81
2024/01/26 02:27:53;;;;;;;2.63;2.10;;;;;;;;;;5095016;28;21085;-80
2024/01/26 02:30:19;;;;;;;2.50;2.30;;;;;;;;;;5096252;28;20380;-81
2024/01/26 02:32:45;;;;;;;3.63;2.70;;;;;;;;;;5096628;28;20389;-81
2024/01/26 02:35:11;;;;;;;2.65;2.42;;;;;;;;;;5096362;28;20419;-81
2024/01/26 02:37:37;;;;;;;2.60;2.40;;;;;;;;;;5096102;28;20378;-81
2024/01/26 02:40:03;;;;;;;2.80;2.22;;;;;;;;;;5095802;28;20382;-81
2024/01/26 02:42:29;;;;;;;2.70;2.10;;;;;;;;;;5095980;28;20404;-80
2024/01/26 02:44:55;;;;;;;2.53;2.30;;;;;;;;;;5095605;28;20382;-82
2024/01/26 02:47:21;;;;;;;2.10;1.90;;;;;;;;;;5095283;28;20405;-81
2024/01/26 02:49:47;;;;;;;2.20;2.00;;;;;;;;;;5095694;28;20370;-80
2024/01/26 02:52:13;;;;;;;1.98;1.77;;;;;;;;;;5095522;28;20370;-81
2024/01/26 02:54:39;;;;;;;2.15;1.52;;;;;;;;;;5095911;28;20851;-81
2024/01/26 02:57:05;;;;;;;1.97;1.83;;;;;;;;;;5095309;28;20417;-81
2024/01/26 02:59:31;;;;;;;1.90;1.60;;;;;;;;;;5096079;28;20851;-80
2024/01/26 03:01:57;;;;;;;2.30;1.80;;;;;;;;;;5095671;28;20414;-81
2024/01/26 03:04:23;;;;;;;1.63;1.53;;;;;;;;;;5095537;28;20389;-81
2024/01/26 03:06:50;;;;;;;1.67;1.50;;;;;;;;;;5095227;28;20378;-80
2024/01/26 03:09:17;;;;;;;2.33;1.50;;;;;;;;;;5095670;28;20370;-81
2024/01/26 03:11:43;;;;;;;2.65;1.52;;;;;;;;;;5095070;28;20935;-81
2024/01/26 03:14:09;;;;;;;2.65;1.42;;;;;;;;;;5095650;28;20390;-81
2024/01/26 03:16:36;;;;;;;1.52;1.38;;;;;;;;;;5094627;28;20465;-81
2024/01/26 03:19:02;;;;;;;1.70;1.20;;;;;;;;;;5095249;28;20385;-81
2024/01/26 03:21:28;;;;;;;1.70;1.23;;;;;;;;;;5095056;28;20489;-81
2024/01/26 03:23:54;;;;;;;1.02;1.00;;;;;;;;;;5095056;28;20401;-81
2024/01/26 03:26:20;;;;;;;1.10;1.00;;;;;;;;;;5094598;28;20374;-80
2024/01/26 03:28:47;;;;;;;1.40;1.00;;;;;;;;;;5094298;28;20447;-81
2024/01/26 03:31:13;;;;;;;2.00;1.15;;;;;;;;;;5094866;28;20435;-80
2024/01/26 03:33:40;;;;;;;1.10;1.00;;;;;;;;;;5094914;28;20378;-81
2024/01/26 03:36:06;;;;;;;1.55;1.10;;;;;;;;;;5094934;28;20386;-80
2024/01/26 03:38:32;;;;;;;1.75;1.23;;;;;;;;;;5093989;28;20456;-80
2024/01/26 03:40:58;;;;;;;1.10;1.00;;;;;;;;;;5094550;28;20887;-81
2024/01/26 03:43:24;;;;;;;1.10;1.00;;;;;;;;;;5094761;28;20386;-80
2024/01/26 03:45:50;;;;;;;1.80;1.20;;;;;;;;;;5094587;28;20532;-81
2024/01/26 03:48:16;;;;;;;1.15;1.05;;;;;;;;;;5094709;28;20401;-81
2024/01/26 03:50:42;;;;;;;2.50;1.23;;;;;;;;;;5094502;28;20461;-81
2024/01/26 03:53:08;;;;;;;2.78;1.70;;;;;;;;;;5094462;28;20374;-81
2024/01/26 03:55:34;;;;;;;10.63;9.63;;;;;;;;;;5094200;28;20478;-81
2024/01/26 03:58:00;;;;;;;4.95;4.45;;;;;;;;;;5094546;28;20382;-81
2024/01/26 04:00:26;;;;;;;1.88;1.70;;;;;;;;;;5094239;28;20473;-81
2024/01/26 04:02:52;;;;;;;1.92;1.10;;;;;;;;;;5094667;28;20428;-81
2024/01/26 04:05:18;;;;;;;1.67;1.10;;;;;;;;;;5075911;28;20406;-80
2024/01/26 04:07:44;;;;;;;1.13;1.03;;;;;;;;;;5094271;28;20404;-81
2024/01/26 04:10:10;;;;;;;1.75;1.05;;;;;;;;;;5094565;28;20407;-81
2024/01/26 04:12:36;;;;;;;2.35;0.90;;;;;;;;;;5094851;28;20465;-81
2024/01/26 04:15:02;;;;;;;1.65;0.82;;;;;;;;;;5094692;28;20899;-80
2024/01/26 04:17:28;;;;;;;1.92;0.88;;;;;;;;;;5093654;28;20370;-81
2024/01/26 04:19:54;;;;;;;0.90;0.85;;;;;;;;;;5094746;28;20389;-81
2024/01/26 04:22:20;;;;;;;2.20;1.10;;;;;;;;;;5094566;28;20586;-81
2024/01/26 04:24:46;;;;;;;1.40;1.10;;;;;;;;;;5094311;28;20410;-81
2024/01/26 04:27:12;;;;;;;1.15;0.90;;;;;;;;;;5093860;28;20374;-81
2024/01/26 04:29:38;;;;;;;1.52;0.90;;;;;;;;;;5094277;28;20938;-81
2024/01/26 04:32:05;;;;;;;0.82;0.75;;;;;;;;;;5094061;28;20370;-81
2024/01/26 04:34:30;;;;;;;1.10;0.75;;;;;;;;;;5094865;28;20814;-80
2024/01/26 04:36:57;;;;;;;1.25;0.80;;;;;;;;;;5094193;28;20382;-81
2024/01/26 04:39:23;;;;;;;1.27;0.80;;;;;;;;;;5094145;28;20420;-81
2024/01/26 04:41:49;;;;;;;2.33;1.10;;;;;;;;;;5093705;28;20802;-81
2024/01/26 04:44:15;;;;;;;2.33;1.10;;;;;;;;;;5093354;28;20434;-80
2024/01/26 04:46:41;;;;;;;1.92;1.20;;;;;;;;;;5093788;28;20377;-81
2024/01/26 04:49:07;;;;;;;1.55;0.95;;;;;;;;;;5093979;28;20374;-80
2024/01/26 04:51:33;;;;;;;3.20;1.40;;;;;;;;;;5093867;28;20860;-81
2024/01/26 04:53:59;;;;;;;1.50;1.33;;;;;;;;;;5094789;28;20752;-81
2024/01/26 04:56:24;;;;;;;1.80;1.00;;;;;;;;;;5094464;28;20382;-81
2024/01/26 04:58:51;;;;;;;2.00;1.00;;;;;;;;;;5093901;28;20418;-81
2024/01/26 05:01:16;;;;;;;1.38;0.93;;;;;;;;;;5093002;28;20455;-81
2024/01/26 05:03:42;;;;;;;1.70;1.00;;;;;;;;;;5093322;28;20378;-81
2024/01/26 05:06:09;;;;;;;1.30;0.98;;;;;;;;;;5093679;28;20396;-81
2024/01/26 05:08:35;;;;;;;2.78;1.30;;;;;;;;;;5093646;28;20868;-81
2024/01/26 05:11:01;;;;;;;1.75;1.20;;;;;;;;;;5093786;28;20397;-81
2024/01/26 05:13:27;;;;;;;1.30;0.85;;;;;;;;;;5093123;28;20786;-81
2024/01/26 05:15:53;;;;;;;1.10;0.88;;;;;;;;;;5093915;28;20386;-81
2024/01/26 05:18:19;;;;;;;0.90;0.90;;;;;;;;;;5093837;28;20748;-81
2024/01/26 05:20:45;;;;;;;1.10;0.82;;;;;;;;;;5093336;28;20405;-81
2024/01/26 05:23:11;;;;;;;1.25;0.70;;;;;;;;;;5092824;28;20467;-81
2024/01/26 05:25:37;;;;;;;0.60;0.60;;;;;;;;;;5093356;28;20370;-81
2024/01/26 05:28:03;;;;;;;1.33;0.70;;;;;;;;;;5093108;28;20450;-81
2024/01/26 05:30:29;;;;;;;1.50;0.80;;;;;;;;;;5093823;28;20374;-81
2024/01/26 05:32:55;;;;;;;1.02;0.70;;;;;;;;;;5093363;28;20962;-81
2024/01/26 05:35:21;;;;;;;1.25;0.70;;;;;;;;;;5093380;28;20439;-81
2024/01/26 05:37:47;;;;;;;0.90;0.70;;;;;;;;;;5093392;28;20366;-81
2024/01/26 05:40:13;;;;;;;0.70;0.70;;;;;;;;;;5094053;28;20861;-81
2024/01/26 05:42:39;;;;;;;1.98;0.90;;;;;;;;;;5093286;28;20459;-81
2024/01/26 05:45:06;;;;;;;1.50;0.80;;;;;;;;;;5093159;28;20370;-81
2024/01/26 05:47:32;;;;;;;1.20;0.90;;;;;;;;;;5093054;28;20381;-81
2024/01/26 05:49:58;;;;;;;0.60;0.60;;;;;;;;;;5093023;28;20792;-81
2024/01/26 05:52:24;;;;;;;1.27;1.00;;;;;;;;;;5093771;28;20417;-81
2024/01/26 05:54:50;;;;;;;1.23;0.80;;;;;;;;;;5093160;28;20384;-81
2024/01/26 05:57:16;;;;;;;1.17;0.90;;;;;;;;;;5074577;28;20464;-81
2024/01/26 05:59:42;;;;;;;2.05;1.00;;;;;;;;;;5093052;28;20382;-80
2024/01/26 06:02:08;;;;;;;2.00;1.00;;;;;;;;;;5095030;28;20422;-81
2024/01/26 06:04:34;;;;;;;0.93;0.90;;;;;;;;;;5096560;28;20374;-81
2024/01/26 06:07:01;;;;;;;1.00;0.82;;;;;;;;;;5096726;28;20443;-81
2024/01/26 06:09:27;;;;;;;1.75;1.05;;;;;;;;;;5097255;28;20447;-81
2024/01/26 06:11:53;;;;;;;2.13;1.30;;;;;;;;;;5078465;28;20397;-81
2024/01/26 06:14:19;;;;;;;1.98;1.30;;;;;;;;;;5097085;28;20390;-81
2024/01/26 06:16:51;;;;;;;1.60;0.90;;;;;;;;;;5096293;28;20427;-80
2024/01/26 06:19:17;;;;;;;4.30;1.00;;;;;;;;;;5097131;28;20386;-81
2024/01/26 06:21:43;;;;;;;1.13;1.00;;;;;;;;;;5096986;28;20412;-81
2024/01/26 06:24:09;;;;;;;1.30;1.00;;;;;;;;;;5097235;28;20492;-81
2024/01/26 06:26:35;;;;;;;1.83;1.10;;;;;;;;;;5097189;28;20468;-81
2024/01/26 06:29:03;;;;;;;1.30;1.10;;;;;;;;;;5097203;28;20527;-81
2024/01/26 06:31:29;;;;;;;1.77;1.20;;;;;;;;;;5097638;28;20389;-81
2024/01/26 06:33:55;;;;;;;2.05;1.25;;;;;;;;;;5096998;28;20389;-81
2024/01/26 06:36:21;;;;;;;2.33;1.20;;;;;;;;;;5097118;28;20386;-81
2024/01/26 06:38:47;;;;;;;1.50;1.33;;;;;;;;;;5079406;28;20374;-81
2024/01/26 06:41:13;;;;;;;1.95;1.35;;;;;;;;;;5098063;28;20748;-81
2024/01/26 06:43:39;;;;;;;1.05;0.93;;;;;;;;;;5098130;28;20430;-81
2024/01/26 06:46:05;;;;;;;2.55;1.20;;;;;;;;;;5097732;28;20378;-83
2024/01/26 06:48:31;;;;;;;2.55;1.33;;;;;;;;;;5097346;28;20374;-80
2024/01/26 06:50:57;;;;;;;1.70;1.35;;;;;;;;;;5097404;28;20397;-81
2024/01/26 06:53:23;;;;;;;1.80;1.00;;;;;;;;;;5097263;28;20402;-81
2024/01/26 06:55:49;;;;;;;1.27;1.13;;;;;;;;;;5097394;28;20386;-81
2024/01/26 06:58:17;;;;;;;2.15;1.10;;;;;;;;;;5097721;28;20799;-81
2024/01/26 07:00:43;;;;;;;1.10;0.90;;;;;;;;;;5097448;28;20803;-81
2024/01/26 07:03:09;;;;;;;0.95;0.85;;;;;;;;;;5097791;28;20382;-81
2024/01/26 07:05:35;;;;;;;2.00;1.20;;;;;;;;;;5097746;28;20434;-81
2024/01/26 07:08:01;;;;;;;2.17;0.90;;;;;;;;;;5098142;28;20389;-81
2024/01/26 07:10:27;;;;;;;1.20;1.05;;;;;;;;;;5097656;28;20374;-81
2024/01/26 07:12:53;;;;;;;2.08;0.90;;;;;;;;;;5097670;28;20382;-81
2024/01/26 07:15:19;;;;;;;1.60;1.10;;;;;;;;;;5097480;28;20455;-81
2024/01/26 07:17:45;;;;;;;3.20;1.17;;;;;;;;;;5097730;28;20479;-81
2024/01/26 07:20:11;;;;;;;2.03;1.10;;;;;;;;;;5098017;28;20367;-81
2024/01/26 07:22:37;;;;;;;1.80;1.07;;;;;;;;;;5098022;28;20398;-81
2024/01/26 07:25:09;;;;;;;1.40;1.30;;;;;;;;;;5098737;28;20374;-81
2024/01/26 07:27:35;;;;;;;2.30;1.13;;;;;;;;;;5098289;28;20731;-81
2024/01/26 07:30:05;;;;;;;1.73;1.00;;;;;;;;;;5097592;28;20435;-81
2024/01/26 07:32:31;;;;;;;1.70;1.17;;;;;;;;;;5098696;28;20423;-81
2024/01/26 07:34:57;;;;;;;1.23;1.10;;;;;;;;;;5097358;28;20382;-81
2024/01/26 07:37:23;;;;;;;1.67;1.38;;;;;;;;;;5097452;28;20888;-82
2024/01/26 07:39:49;;;;;;;1.40;1.20;;;;;;;;;;5097429;28;20425;-81
2024/01/26 07:42:15;;;;;;;1.42;1.10;;;;;;;;;;5097476;28;20405;-82
2024/01/26 07:44:41;;;;;;;1.30;1.20;;;;;;;;;;5097169;28;20374;-82
2024/01/26 07:47:07;;;;;;;1.27;1.17;;;;;;;;;;5097388;28;20464;-82
2024/01/26 07:49:33;;;;;;;1.35;1.20;;;;;;;;;;5096791;28;20374;-81
2024/01/26 07:51:59;;;;;;;3.03;1.20;;;;;;;;;;5097511;28;20382;-83
2024/01/26 07:54:25;;;;;;;1.80;1.00;;;;;;;;;;5097836;28;20467;-81
2024/01/26 07:56:51;;;;;;;1.90;1.10;;;;;;;;;;5097640;28;20389;-81
2024/01/26 07:59:17;;;;;;;1.30;0.98;;;;;;;;;;5096950;28;20378;-81
2024/01/26 08:01:43;;;;;;;2.15;1.23;;;;;;;;;;5095843;28;20771;-81
2024/01/26 08:04:09;;;;;;;1.15;0.90;;;;;;;;;;5095818;28;20401;-81
2024/01/26 08:06:35;;;;;;;1.20;1.10;;;;;;;;;;5093348;28;20747;-81
2024/01/26 08:09:01;;;;;;;1.65;1.20;;;;;;;;;;5094715;28;20377;-81
2024/01/26 08:11:27;;;;;;;1.60;1.10;;;;;;;;;;5095238;28;20886;-81
2024/01/26 08:13:53;;;;;;;1.63;1.20;;;;;;;;;;5094652;28;20374;-81
2024/01/26 08:16:19;;;;;;;2.35;1.05;;;;;;;;;;5094926;28;20382;-82
2024/01/26 08:18:45;;;;;;;2.00;1.30;;;;;;;;;;5094434;28;20448;-81
2024/01/26 08:21:12;;;;;;;2.50;1.20;;;;;;;;;;5094177;28;20737;-81
2024/01/26 08:23:38;;;;;;;1.48;1.08;;;;;;;;;;5094828;28;20935;-81
2024/01/26 08:26:04;;;;;;;1.83;1.02;;;;;;;;;;5094130;28;20417;-81
2024/01/26 08:28:30;;;;;;;2.33;1.20;;;;;;;;;;5094678;28;20379;-81
2024/01/26 08:30:56;;;;;;;1.65;1.38;;;;;;;;;;5094573;28;20389;-81
2024/01/26 08:33:22;;;;;;;1.50;1.30;;;;;;;;;;5095100;28;20437;-81
2024/01/26 08:35:48;;;;;;;1.85;1.38;;;;;;;;;;5094378;28;20394;-81
2024/01/26 08:38:14;;;;;;;2.65;1.30;;;;;;;;;;5094228;28;20944;-81
2024/01/26 08:40:40;;;;;;;1.73;1.30;;;;;;;;;;5094119;28;20408;-81
2024/01/26 08:43:06;;;;;;;1.80;1.02;;;;;;;;;;5094708;28;20378;-81
2024/01/26 08:45:33;;;;;;;1.30;1.00;;;;;;;;;;5094738;28;20374;-81
2024/01/26 08:47:59;;;;;;;1.50;1.07;;;;;;;;;;5095112;28;20843;-81
2024/01/26 08:50:25;;;;;;;2.17;1.00;;;;;;;;;;5094905;28;20370;-81
2024/01/26 08:52:51;;;;;;;1.90;1.05;;;;;;;;;;5094818;28;20381;-81
2024/01/26 08:55:17;;;;;;;2.35;1.20;;;;;;;;;;5094517;28;20377;-81
2024/01/26 08:57:43;;;;;;;1.20;1.08;;;;;;;;;;5094857;28;20382;-81
2024/01/26 09:00:12;;;;;;;1.55;1.00;;;;;;;;;;5093614;28;20386;-81
2024/01/26 09:02:38;;;;;;;1.65;1.00;;;;;;;;;;5093222;28;20445;-81
2024/01/26 09:05:06;;;;;;;1.60;1.10;;;;;;;;;;5093752;28;20854;-81
2024/01/26 09:07:32;;;;;;;1.70;1.20;;;;;;;;;;5093378;28;20366;-81
2024/01/26 09:09:58;;;;;;;2.88;1.30;;;;;;;;;;5094170;28;20370;-81
2024/01/26 09:12:24;;;;;;;2.60;1.38;;;;;;;;;;5093854;28;20382;-82
2024/01/26 09:14:50;;;;;;;2.40;1.30;;;;;;;;;;5093786;28;20381;-81
2024/01/26 09:17:16;;;;;;;1.73;1.00;;;;;;;;;;5093969;28;20870;-82
2024/01/26 09:19:42;;;;;;;1.38;0.95;;;;;;;;;;5094308;28;20385;-81
2024/01/26 09:22:08;;;;;;;1.58;1.20;;;;;;;;;;5094091;28;20429;-81
2024/01/26 09:24:34;;;;;;;1.17;0.90;;;;;;;;;;5094196;28;20382;-81
2024/01/26 09:27:01;;;;;;;2.15;1.20;;;;;;;;;;5094096;28;20832;-81
2024/01/26 09:29:27;;;;;;;2.00;1.00;;;;;;;;;;5094401;28;20439;-81
2024/01/26 09:31:54;;;;;;;1.50;1.00;;;;;;;;;;5093467;28;20374;-81
2024/01/26 09:34:20;;;;;;;2.63;1.17;;;;;;;;;;5094233;28;20370;-81
2024/01/26 09:36:46;;;;;;;2.55;1.30;;;;;;;;;;5096342;28;20426;-81
2024/01/26 09:39:12;;;;;;;1.38;1.10;;;;;;;;;;5097601;28;20377;-81
2024/01/26 09:41:39;;;;;;;2.33;1.30;;;;;;;;;;5097430;28;20845;-81
2024/01/26 09:44:05;;;;;;;1.30;1.10;;;;;;;;;;5097619;28;20386;-81
2024/01/26 09:46:31;;;;;;;1.60;1.10;;;;;;;;;;5098028;28;20378;-82
2024/01/26 09:48:58;;;;;;;1.25;1.00;;;;;;;;;;5097619;28;20786;-82
2024/01/26 09:51:26;;;;;;;3.60;1.00;;;;;;;;;;5098024;28;20382;-82
2024/01/26 09:53:54;;;;;;;2.80;0.95;;;;;;;;;;5097745;28;20384;-81
2024/01/26 09:56:21;;;;;;;1.02;0.90;;;;;;;;;;5097463;28;20386;-81
2024/01/26 09:58:47;;;;;;;1.40;1.00;;;;;;;;;;5097691;28;20378;-81
2024/01/26 10:01:16;;;;;;;2.25;1.10;;;;;;;;;;5097327;28;20940;-81
2024/01/26 10:03:42;;;;;;;1.35;1.00;;;;;;;;;;5096956;28;20843;-81
2024/01/26 10:06:09;;;;;;;2.08;1.38;;;;;;;;;;5096091;28;20378;-82
2024/01/26 10:08:39;;;;;;;2.58;1.30;;;;;;;;;;5097547;28;20373;-82
2024/01/26 10:11:05;;;;;;;1.27;1.17;;;;;;;;;;5097912;28;20893;-81
2024/01/26 10:13:31;;;;;;;1.80;1.10;;;;;;;;;;5097239;28;20457;-82
2024/01/26 10:16:11;;;;;;;1.80;0.90;;;;;;;;;;5095045;28;20708;-82
2024/01/26 10:18:42;;;;;;;3.17;1.30;;;;;;;;;;5096981;28;20382;-82
2024/01/26 10:21:08;;;;;;;1.67;1.20;;;;;;;;;;5097575;28;20489;-82
2024/01/26 10:23:34;;;;;;;1.50;1.23;;;;;;;;;;5096955;28;20374;-82
2024/01/26 10:26:00;;;;;;;1.95;1.17;;;;;;;;;;5096828;28;20374;-82
2024/01/26 10:28:26;;;;;;;1.23;1.13;;;;;;;;;;5096798;28;20705;-82
2024/01/26 10:30:52;;;;;;;1.70;1.45;;;;;;;;;;5096674;28;20378;-82
2024/01/26 10:33:20;;;;;;;1.38;1.20;;;;;;;;;;5097036;28;20457;-82
2024/01/26 10:35:47;;;;;;;2.33;1.48;;;;;;;;;;5096827;28;20439;-82
2024/01/26 10:38:14;;;;;;;2.03;1.40;;;;;;;;;;5096922;28;20401;-82
2024/01/26 10:40:43;;;;;;;1.92;1.25;;;;;;;;;;5097060;28;20393;-81
2024/01/26 10:43:09;;;;;;;1.60;1.20;;;;;;;;;;5097044;28;20381;-81
2024/01/26 10:45:36;;;;;;;1.42;1.00;;;;;;;;;;5096791;28;20927;-81
2024/01/26 10:48:02;;;;;;;1.17;0.88;;;;;;;;;;5096472;28;20376;-81
2024/01/26 10:50:28;;;;;;;2.20;1.30;;;;;;;;;;5097465;28;20449;-81
2024/01/26 10:52:54;;;;;;;2.00;1.10;;;;;;;;;;5097291;28;20454;-81
2024/01/26 10:55:20;;;;;;;1.93;1.27;;;;;;;;;;5096740;28;20413;-81
2024/01/26 10:57:46;;;;;;;2.65;1.00;;;;;;;;;;5097440;28;20378;-81
2024/01/26 11:00:14;;;;;;;2.90;0.95;;;;;;;;;;5097106;28;20870;-81
2024/01/26 11:02:41;;;;;;;2.00;1.27;;;;;;;;;;5097518;28;20463;-81
2024/01/26 11:05:10;;;;;;;1.73;1.30;;;;;;;;;;5097585;28;20375;-82
2024/01/26 11:07:37;;;;;;;2.50;1.10;;;;;;;;;;5096831;28;20381;-82
2024/01/26 11:10:04;;;;;;;2.75;1.20;;;;;;;;;;5097426;28;20429;-82
2024/01/26 11:12:32;;;;;;;2.20;1.20;;;;;;;;;;5096403;28;20461;-82
2024/01/26 11:15:04;;;;;;;1.17;1.00;;;;;;;;;;5097098;28;20377;-82
2024/01/26 11:17:31;;;;;;;2.05;1.30;;;;;;;;;;5096684;28;20374;-82
2024/01/26 11:20:00;;;;;;;1.48;1.10;;;;;;;;;;5096947;28;20405;-82
2024/01/26 11:22:33;;;;;;;1.75;1.30;;;;;;;;;;5096698;28;20398;-81
2024/01/26 11:24:59;;;;;;;2.53;1.20;;;;;;;;;;5097076;28;20378;-81
2024/01/26 11:27:25;;;;;;;1.92;1.20;;;;;;;;;;5096299;28;20882;-81
2024/01/26 11:29:51;;;;;;;1.95;1.40;;;;;;;;;;5096614;28;20374;-81
2024/01/26 11:32:18;;;;;;;2.28;1.50;;;;;;;;;;5096170;28;20398;-81
2024/01/26 11:34:44;;;;;;;3.15;1.60;;;;;;;;;;5097050;28;20397;-81
2024/01/26 11:37:14;;;;;;;1.60;1.30;;;;;;;;;;5096650;28;20386;-81
2024/01/26 11:39:41;;;;;;;1.52;1.27;;;;;;;;;;5096459;28;20385;-81
2024/01/26 11:42:08;;;;;;;2.05;1.27;;;;;;;;;;5096220;28;20409;-81
2024/01/26 11:44:39;;;;;;;1.33;1.23;;;;;;;;;;5095663;28;20382;-81
2024/01/26 11:47:06;;;;;;;2.05;1.20;;;;;;;;;;5095698;28;20869;-82
2024/01/26 11:49:32;;;;;;;2.20;1.50;;;;;;;;;;5095611;28;20854;-82
2024/01/26 11:51:58;;;;;;;2.60;1.30;;;;;;;;;;5095322;28;20382;-82
2024/01/26 11:54:25;;;;;;;1.55;1.13;;;;;;;;;;5095537;28;20393;-82
2024/01/26 11:56:51;;;;;;;1.83;1.50;;;;;;;;;;5095717;28;20412;-82
2024/01/26 11:59:17;;;;;;;2.22;1.65;;;;;;;;;;5076980;28;20386;-82
2024/01/26 12:01:43;;;;;;;2.10;1.60;;;;;;;;;;5088995;22;20436;-78
2024/01/26 12:04:09;;;;;;;2.78;1.95;;;;;;;;;;5053406;28;20385;-78
2024/01/26 12:06:35;;;;;;;2.50;1.73;;;;;;;;;;5055805;28;20411;-78
2024/01/26 12:09:01;;;;;;;3.22;1.23;;;;;;;;;;5035451;28;20478;-80
2024/01/26 12:11:27;;;;;;;4.30;1.33;;;;;;;;;;5033543;28;20541;-80
2024/01/26 12:13:53;;;;;;;1.92;1.35;;;;;;;;;;5029946;28;20387;-80
2024/01/26 12:16:23;;;;;;;2.03;1.38;;;;;;;;;;5033608;28;20790;-79
2024/01/26 12:18:49;;;;;;;1.70;1.40;;;;;;;;;;5033700;28;20806;-80
2024/01/26 12:21:15;;;;;;;2.67;1.60;;;;;;;;;;5033587;28;20496;-80
2024/01/26 12:23:41;;;;;;;1.80;1.50;;;;;;;;;;5034716;28;20865;-80
2024/01/26 12:26:11;;;;;;;2.95;1.63;;;;;;;;;;5035164;28;20401;-80
2024/01/26 12:28:37;;;;;;;2.60;2.20;;;;;;;;;;5034339;28;20375;-80
2024/01/26 12:31:04;;;;;;;3.22;2.20;;;;;;;;;;5035138;28;20459;-81
2024/01/26 12:33:31;;;;;;;2.47;2.10;;;;;;;;;;5033308;28;20482;-80
2024/01/26 12:35:59;;;;;;;2.85;2.00;;;;;;;;;;5034916;28;20441;-82
2024/01/26 12:38:25;;;;;;;1.98;1.73;;;;;;;;;;5034555;28;20391;-81
2024/01/26 12:40:51;;;;;;;2.78;1.80;;;;;;;;;;5035045;28;20784;-82
2024/01/26 12:43:17;;;;;;;2.75;1.70;;;;;;;;;;5034733;28;20858;-81
2024/01/26 12:45:43;;;;;;;2.65;1.92;;;;;;;;;;5034478;28;20473;-82
2024/01/26 12:48:09;;;;;;;3.15;2.35;;;;;;;;;;5033352;28;20426;-82
2024/01/26 12:50:35;;;;;;;2.50;2.30;;;;;;;;;;5034493;28;20473;-81
2024/01/26 12:53:01;;;;;;;3.42;2.38;;;;;;;;;;5034708;28;20387;-80
2024/01/26 12:55:27;;;;;;;2.70;2.45;;;;;;;;;;5032962;28;20468;-81
2024/01/26 12:57:55;;;;;;;3.10;2.00;;;;;;;;;;5034378;28;20379;-81
2024/01/26 13:00:21;;;;;;;1.92;1.60;;;;;;;;;;5034234;28;20391;-81
2024/01/26 13:02:47;;;;;;;2.08;1.75;;;;;;;;;;5038184;28;20425;-80
2024/01/26 13:05:13;;;;;;;2.53;1.83;;;;;;;;;;5054322;28;20382;-81
2024/01/26 13:07:39;;;;;;;2.97;2.00;;;;;;;;;;5053560;28;20386;-82
2024/01/26 13:10:05;;;;;;;4.45;2.53;;;;;;;;;;5053913;28;20385;-81
2024/01/26 13:12:31;;;;;;;2.88;2.47;;;;;;;;;;5056606;28;20385;-80
2024/01/26 13:14:57;;;;;;;3.05;2.42;;;;;;;;;;5058481;28;20438;-82
2024/01/26 13:17:25;;;;;;;4.43;2.20;;;;;;;;;;5058445;28;20381;-82
2024/01/26 13:19:51;;;;;;;3.00;2.40;;;;;;;;;;5056774;28;20732;-82
2024/01/26 13:22:17;;;;;;;2.55;2.05;;;;;;;;;;5058081;28;20411;-80
2024/01/26 13:24:45;;;;;;;2.50;2.30;;;;;;;;;;5057833;28;20390;-81
2024/01/26 13:27:11;;;;;;;2.38;2.00;;;;;;;;;;5057832;28;20484;-81
2024/01/26 13:29:38;;;;;;;2.25;1.98;;;;;;;;;;5056772;28;20913;-81
2024/01/26 13:32:05;;;;;;;2.53;1.95;;;;;;;;;;5058671;28;20508;-82
2024/01/26 13:34:31;;;;;;;1.73;1.40;;;;;;;;;;5056067;28;21117;-81
2024/01/26 13:36:58;;;;;;;1.63;1.52;;;;;;;;;;5057643;28;20401;-81
2024/01/26 13:39:24;;;;;;;1.65;1.55;;;;;;;;;;5057765;28;20385;-82
2024/01/26 13:41:50;;;;;;;2.05;1.60;;;;;;;;;;5056479;28;20937;-81
2024/01/26 13:44:16;;;;;;;1.77;1.50;;;;;;;;;;5057789;28;20456;-80
2024/01/26 13:46:44;;;;;;;2.17;1.60;;;;;;;;;;5056804;28;20385;-82
2024/01/26 13:49:10;;;;;;;1.80;1.60;;;;;;;;;;5057582;28;20381;-81
2024/01/26 13:51:36;;;;;;;1.85;1.75;;;;;;;;;;5057093;28;20990;-80
2024/01/26 13:54:02;;;;;;;2.30;1.52;;;;;;;;;;5057475;28;20389;-81
2024/01/26 13:56:28;;;;;;;2.07;1.70;;;;;;;;;;5057991;28;20869;-81
2024/01/26 13:58:56;;;;;;;2.13;2.00;;;;;;;;;;5057681;28;20939;-80
2024/01/26 14:01:22;;;;;;;1.83;1.70;;;;;;;;;;5057224;28;20425;-80
2024/01/26 14:03:48;;;;;;;2.10;1.77;;;;;;;;;;5057789;28;20390;-81
2024/01/26 14:06:14;;;;;;;2.97;1.40;;;;;;;;;;5045143;28;20875;-81
2024/01/26 14:08:40;;;;;;;1.95;1.65;;;;;;;;;;5035017;28;20391;-81
2024/01/26 14:11:06;;;;;;;2.50;1.60;;;;;;;;;;5036165;28;20403;-80
2024/01/26 14:13:32;;;;;;;2.75;1.77;;;;;;;;;;5037087;28;20414;-80
2024/01/26 14:15:59;;;;;;;2.17;1.98;;;;;;;;;;5035655;28;20441;-82
2024/01/26 14:18:25;;;;;;;2.50;1.73;;;;;;;;;;5036903;28;20391;-80
2024/01/26 14:20:53;;;;;;;2.13;1.70;;;;;;;;;;5037010;28;20402;-81
2024/01/26 14:23:19;;;;;;;2.33;1.83;;;;;;;;;;5037127;28;20383;-81
2024/01/26 14:25:46;;;;;;;1.75;1.65;;;;;;;;;;5037668;28;20375;-80
2024/01/26 14:28:13;;;;;;;1.93;1.83;;;;;;;;;;5036795;28;20375;-82
2024/01/26 14:30:39;;;;;;;2.22;1.92;;;;;;;;;;5036460;28;20379;-80
2024/01/26 14:33:08;;;;;;;3.90;2.05;;;;;;;;;;5035310;28;20394;-81
2024/01/26 14:35:34;;;;;;;1.88;1.73;;;;;;;;;;5034743;28;20376;-82